sensor_id;sensor_type;location;lat;lon;timestamp;temperature;humidity
3356;DHT22;1691;52.486;13.374;2023-01-24T00:01:02;2.80;98.70
3356;DHT22;1691;52.486;13.374;2023-01-24T00:03:30;2.80;98.70
3356;DHT22;1691;52.486;13.374;2023-01-24T00:05:57;2.80;98.70
3356;DHT22;1691;52.486;13.374;2023-01-24T00:08:24;2.80;98.70
3356;DHT22;1691;52.486;13.374;2023-01-24T00:11:02;2.70;98.70
3356;DHT22;1691;52.486;13.374;2023-01-24T00:13:31;2.60;98.70
3356;DHT22;1691;52.486;13.374;2023-01-24T00:16:20;2.50;98.70
3356;DHT22;1691;52.486;13.374;2023-01-24T00:18:48;2.50;98.70
3356;DHT22;1691;52.486;13.374;2023-01-24T00:21:18;2.50;98.70
3356;DHT22;1691;52.486;13.374;2023-01-24T00:23:49;2.50;98.70
3356;DHT22;1691;52.486;13.374;2023-01-24T00:26:19;2.40;98.70
3356;DHT22;1691;52.486;13.374;2023-01-24T00:28:47;2.30;98.70
3356;DHT22;1691;52.486;13.374;2023-01-24T00:31:16;2.30;98.70
3356;DHT22;1691;52.486;13.374;2023-01-24T00:33:43;2.20;98.70
3356;DHT22;1691;52.486;13.374;2023-01-24T00:36:11;2.20;98.70
3356;DHT22;1691;52.486;13.374;2023-01-24T00:38:38;2.20;98.70
3356;DHT22;1691;52.486;13.374;2023-01-24T00:41:05;2.30;98.70
3356;DHT22;1691;52.486;13.374;2023-01-24T00:43:32;2.30;98.70
3356;DHT22;1691;52.486;13.374;2023-01-24T00:45:59;2.30;98.70
3356;DHT22;1691;52.486;13.374;2023-01-24T00:48:27;2.20;98.70
3356;DHT22;1691;52.486;13.374;2023-01-24T00:50:55;2.20;98.70
3356;DHT22;1691;52.486;13.374;2023-01-24T00:53:22;2.10;98.70
3356;DHT22;1691;52.486;13.374;2023-01-24T00:55:49;2.10;98.70
3356;DHT22;1691;52.486;13.374;2023-01-24T00:58:17;2.10;98.70
3356;DHT22;1691;52.486;13.374;2023-01-24T01:00:44;2.20;98.70
3356;DHT22;1691;52.486;13.374;2023-01-24T01:03:14;2.30;98.70
3356;DHT22;1691;52.486;13.374;2023-01-24T01:05:43;2.30;98.70
3356;DHT22;1691;52.486;13.374;2023-01-24T01:08:11;2.30;98.70
3356;DHT22;1691;52.486;13.374;2023-01-24T01:10:39;2.30;98.70
3356;DHT22;1691;52.486;13.374;2023-01-24T01:13:06;2.20;98.70
3356;DHT22;1691;52.486;13.374;2023-01-24T01:15:33;2.20;98.70
3356;DHT22;1691;52.486;13.374;2023-01-24T01:18:00;2.20;98.70
3356;DHT22;1691;52.486;13.374;2023-01-24T01:20:27;2.20;98.70
3356;DHT22;1691;52.486;13.374;2023-01-24T01:22:54;2.20;98.70
3356;DHT22;1691;52.486;13.374;2023-01-24T01:25:21;2.10;98.70
3356;DHT22;1691;52.486;13.374;2023-01-24T01:27:49;2.10;98.70
3356;DHT22;1691;52.486;13.374;2023-01-24T01:30:16;2.00;98.70
3356;DHT22;1691;52.486;13.374;2023-01-24T01:32:45;2.00;98.70
3356;DHT22;1691;52.486;13.374;2023-01-24T01:35:12;2.00;98.70
3356;DHT22;1691;52.486;13.374;2023-01-24T01:37:39;2.00;98.70
3356;DHT22;1691;52.486;13.374;2023-01-24T01:40:07;2.00;98.70
3356;DHT22;1691;52.486;13.374;2023-01-24T01:42:50;2.00;98.70
3356;DHT22;1691;52.486;13.374;2023-01-24T01:45:40;2.00;98.70
3356;DHT22;1691;52.486;13.374;2023-01-24T01:48:12;2.00;98.70
3356;DHT22;1691;52.486;13.374;2023-01-24T01:51:14;2.10;98.70
3356;DHT22;1691;52.486;13.374;2023-01-24T01:53:53;2.00;98.70
3356;DHT22;1691;52.486;13.374;2023-01-24T01:56:28;2.00;98.70
3356;DHT22;1691;52.486;13.374;2023-01-24T01:59:06;2.10;98.70
3356;DHT22;1691;52.486;13.374;2023-01-24T02:01:37;2.10;98.70
3356;DHT22;1691;52.486;13.374;2023-01-24T02:04:11;2.10;98.70
3356;DHT22;1691;52.486;13.374;2023-01-24T02:07:05;2.10;98.70
3356;DHT22;1691;52.486;13.374;2023-01-24T02:09:39;2.00;98.70
3356;DHT22;1691;52.486;13.374;2023-01-24T02:12:11;2.00;98.70
3356;DHT22;1691;52.486;13.374;2023-01-24T02:14:40;2.00;98.70
3356;DHT22;1691;52.486;13.374;2023-01-24T02:17:26;2.00;98.70
3356;DHT22;1691;52.486;13.374;2023-01-24T02:20:03;2.00;98.70
3356;DHT22;1691;52.486;13.374;2023-01-24T02:25:34;2.00;98.70
3356;DHT22;1691;52.486;13.374;2023-01-24T02:28:05;2.00;98.70
3356;DHT22;1691;52.486;13.374;2023-01-24T02:30:36;1.90;98.70
3356;DHT22;1691;52.486;13.374;2023-01-24T02:33:18;1.90;98.70
3356;DHT22;1691;52.486;13.374;2023-01-24T02:35:46;1.90;98.70
3356;DHT22;1691;52.486;13.374;2023-01-24T02:38:22;1.80;98.70
3356;DHT22;1691;52.486;13.374;2023-01-24T02:40:53;1.70;98.70
3356;DHT22;1691;52.486;13.374;2023-01-24T02:43:24;1.70;98.70
3356;DHT22;1691;52.486;13.374;2023-01-24T02:45:53;1.70;98.70
3356;DHT22;1691;52.486;13.374;2023-01-24T02:48:20;1.70;98.70
3356;DHT22;1691;52.486;13.374;2023-01-24T02:50:47;1.80;98.70
3356;DHT22;1691;52.486;13.374;2023-01-24T02:53:33;1.80;98.70
3356;DHT22;1691;52.486;13.374;2023-01-24T02:56:06;1.90;98.70
3356;DHT22;1691;52.486;13.374;2023-01-24T02:58:53;2.00;98.70
3356;DHT22;1691;52.486;13.374;2023-01-24T03:01:21;2.00;98.70
3356;DHT22;1691;52.486;13.374;2023-01-24T03:03:49;1.90;98.70
3356;DHT22;1691;52.486;13.374;2023-01-24T03:06:18;1.90;98.70
3356;DHT22;1691;52.486;13.374;2023-01-24T03:08:45;1.80;98.70
3356;DHT22;1691;52.486;13.374;2023-01-24T03:11:12;1.70;98.70
3356;DHT22;1691;52.486;13.374;2023-01-24T03:13:39;1.70;98.70
3356;DHT22;1691;52.486;13.374;2023-01-24T03:16:25;1.70;98.70
3356;DHT22;1691;52.486;13.374;2023-01-24T03:19:11;1.70;98.70
3356;DHT22;1691;52.486;13.374;2023-01-24T03:21:57;1.70;98.70
3356;DHT22;1691;52.486;13.374;2023-01-24T03:24:42;1.70;98.70
3356;DHT22;1691;52.486;13.374;2023-01-24T03:27:28;1.80;98.70
3356;DHT22;1691;52.486;13.374;2023-01-24T03:30:13;1.90;98.70
3356;DHT22;1691;52.486;13.374;2023-01-24T03:33:03;1.90;98.70
3356;DHT22;1691;52.486;13.374;2023-01-24T03:35:49;1.90;98.70
3356;DHT22;1691;52.486;13.374;2023-01-24T03:38:24;1.90;98.70
3356;DHT22;1691;52.486;13.374;2023-01-24T03:41:10;1.90;98.70
3356;DHT22;1691;52.486;13.374;2023-01-24T03:43:37;1.90;98.70
3356;DHT22;1691;52.486;13.374;2023-01-24T03:46:04;1.90;98.70
3356;DHT22;1691;52.486;13.374;2023-01-24T03:48:31;2.00;98.70
3356;DHT22;1691;52.486;13.374;2023-01-24T03:51:04;2.00;98.70
3356;DHT22;1691;52.486;13.374;2023-01-24T03:53:50;2.00;98.70
3356;DHT22;1691;52.486;13.374;2023-01-24T03:56:17;1.90;98.70
3356;DHT22;1691;52.486;13.374;2023-01-24T03:58:44;1.90;98.70
3356;DHT22;1691;52.486;13.374;2023-01-24T04:01:11;1.80;98.70
3356;DHT22;1691;52.486;13.374;2023-01-24T04:03:38;1.80;98.70
3356;DHT22;1691;52.486;13.374;2023-01-24T04:06:05;1.80;98.70
3356;DHT22;1691;52.486;13.374;2023-01-24T04:08:32;1.70;98.70
3356;DHT22;1691;52.486;13.374;2023-01-24T04:10:59;1.70;98.70
3356;DHT22;1691;52.486;13.374;2023-01-24T04:13:27;1.70;98.70
3356;DHT22;1691;52.486;13.374;2023-01-24T04:15:54;1.70;98.70
3356;DHT22;1691;52.486;13.374;2023-01-24T04:18:21;1.60;98.70
3356;DHT22;1691;52.486;13.374;2023-01-24T04:20:48;1.60;98.70
3356;DHT22;1691;52.486;13.374;2023-01-24T04:23:15;1.70;98.70
3356;DHT22;1691;52.486;13.374;2023-01-24T04:25:42;1.70;98.70
3356;DHT22;1691;52.486;13.374;2023-01-24T04:28:14;1.70;98.70
3356;DHT22;1691;52.486;13.374;2023-01-24T04:30:41;1.70;98.70
3356;DHT22;1691;52.486;13.374;2023-01-24T04:33:08;1.70;98.70
3356;DHT22;1691;52.486;13.374;2023-01-24T04:35:35;1.80;98.70
3356;DHT22;1691;52.486;13.374;2023-01-24T04:38:03;1.80;98.70
3356;DHT22;1691;52.486;13.374;2023-01-24T04:40:30;1.70;98.70
3356;DHT22;1691;52.486;13.374;2023-01-24T04:42:58;1.80;98.70
3356;DHT22;1691;52.486;13.374;2023-01-24T04:45:26;1.70;98.70
3356;DHT22;1691;52.486;13.374;2023-01-24T04:47:53;1.70;98.70
3356;DHT22;1691;52.486;13.374;2023-01-24T04:50:21;1.70;98.70
3356;DHT22;1691;52.486;13.374;2023-01-24T04:52:48;1.70;98.70
3356;DHT22;1691;52.486;13.374;2023-01-24T04:55:15;1.70;98.70
3356;DHT22;1691;52.486;13.374;2023-01-24T04:57:42;1.70;98.70
3356;DHT22;1691;52.486;13.374;2023-01-24T05:00:10;1.80;98.70
3356;DHT22;1691;52.486;13.374;2023-01-24T05:02:37;1.80;98.70
3356;DHT22;1691;52.486;13.374;2023-01-24T05:05:05;1.80;98.70
3356;DHT22;1691;52.486;13.374;2023-01-24T05:07:32;1.80;98.70
3356;DHT22;1691;52.486;13.374;2023-01-24T05:09:59;1.80;98.70
3356;DHT22;1691;52.486;13.374;2023-01-24T05:12:27;1.90;98.70
3356;DHT22;1691;52.486;13.374;2023-01-24T05:14:54;1.90;98.70
3356;DHT22;1691;52.486;13.374;2023-01-24T05:17:21;2.00;98.70
3356;DHT22;1691;52.486;13.374;2023-01-24T05:19:49;2.00;98.70
3356;DHT22;1691;52.486;13.374;2023-01-24T05:22:16;2.00;98.70
3356;DHT22;1691;52.486;13.374;2023-01-24T05:24:42;2.00;98.70
3356;DHT22;1691;52.486;13.374;2023-01-24T05:27:09;2.00;98.70
3356;DHT22;1691;52.486;13.374;2023-01-24T05:29:36;2.10;98.70
3356;DHT22;1691;52.486;13.374;2023-01-24T05:32:04;2.10;98.70
3356;DHT22;1691;52.486;13.374;2023-01-24T05:34:31;2.10;98.70
3356;DHT22;1691;52.486;13.374;2023-01-24T05:36:58;2.10;98.70
3356;DHT22;1691;52.486;13.374;2023-01-24T05:39:25;2.10;98.70
3356;DHT22;1691;52.486;13.374;2023-01-24T05:41:51;2.00;98.70
3356;DHT22;1691;52.486;13.374;2023-01-24T05:44:19;2.00;98.70
3356;DHT22;1691;52.486;13.374;2023-01-24T05:46:46;2.00;98.70
3356;DHT22;1691;52.486;13.374;2023-01-24T05:49:14;2.00;98.70
3356;DHT22;1691;52.486;13.374;2023-01-24T05:51:41;1.90;98.70
3356;DHT22;1691;52.486;13.374;2023-01-24T05:54:08;1.90;98.70
3356;DHT22;1691;52.486;13.374;2023-01-24T05:56:35;1.80;98.70
3356;DHT22;1691;52.486;13.374;2023-01-24T05:59:02;1.70;98.70
3356;DHT22;1691;52.486;13.374;2023-01-24T06:01:30;1.70;98.70
3356;DHT22;1691;52.486;13.374;2023-01-24T06:03:57;1.70;98.70
3356;DHT22;1691;52.486;13.374;2023-01-24T06:06:24;1.70;98.70
3356;DHT22;1691;52.486;13.374;2023-01-24T06:08:51;1.70;98.70
3356;DHT22;1691;52.486;13.374;2023-01-24T06:11:24;1.70;98.70
3356;DHT22;1691;52.486;13.374;2023-01-24T06:13:54;1.70;98.70
3356;DHT22;1691;52.486;13.374;2023-01-24T06:16:23;1.70;98.70
3356;DHT22;1691;52.486;13.374;2023-01-24T06:18:52;1.70;98.70
3356;DHT22;1691;52.486;13.374;2023-01-24T06:23:58;1.80;98.70
3356;DHT22;1691;52.486;13.374;2023-01-24T06:26:26;1.80;98.70
3356;DHT22;1691;52.486;13.374;2023-01-24T06:28:53;1.80;98.70
3356;DHT22;1691;52.486;13.374;2023-01-24T06:34:33;1.80;98.70
3356;DHT22;1691;52.486;13.374;2023-01-24T06:37:49;1.80;98.70
3356;DHT22;1691;52.486;13.374;2023-01-24T06:40:19;1.90;98.70
3356;DHT22;1691;52.486;13.374;2023-01-24T06:42:50;2.00;98.70
3356;DHT22;1691;52.486;13.374;2023-01-24T06:45:19;2.10;98.70
3356;DHT22;1691;52.486;13.374;2023-01-24T06:47:47;2.10;98.70
3356;DHT22;1691;52.486;13.374;2023-01-24T06:50:16;2.10;98.60
3356;DHT22;1691;52.486;13.374;2023-01-24T06:52:46;2.10;98.50
3356;DHT22;1691;52.486;13.374;2023-01-24T06:55:14;2.00;98.60
3356;DHT22;1691;52.486;13.374;2023-01-24T06:57:41;2.00;98.70
3356;DHT22;1691;52.486;13.374;2023-01-24T07:00:09;1.90;98.70
3356;DHT22;1691;52.486;13.374;2023-01-24T07:02:36;1.90;98.70
3356;DHT22;1691;52.486;13.374;2023-01-24T07:05:04;1.90;98.70
3356;DHT22;1691;52.486;13.374;2023-01-24T07:07:31;1.80;98.70
3356;DHT22;1691;52.486;13.374;2023-01-24T07:09:58;1.90;98.70
3356;DHT22;1691;52.486;13.374;2023-01-24T07:12:25;1.90;98.70
3356;DHT22;1691;52.486;13.374;2023-01-24T07:14:52;2.00;98.70
3356;DHT22;1691;52.486;13.374;2023-01-24T07:17:19;2.00;98.70
3356;DHT22;1691;52.486;13.374;2023-01-24T07:19:46;2.00;98.70
3356;DHT22;1691;52.486;13.374;2023-01-24T07:22:14;2.00;98.70
3356;DHT22;1691;52.486;13.374;2023-01-24T07:24:41;1.90;98.70
3356;DHT22;1691;52.486;13.374;2023-01-24T07:27:09;1.90;98.70
3356;DHT22;1691;52.486;13.374;2023-01-24T07:29:37;1.90;98.70
3356;DHT22;1691;52.486;13.374;2023-01-24T07:32:04;1.90;98.70
3356;DHT22;1691;52.486;13.374;2023-01-24T07:34:31;1.80;98.70
3356;DHT22;1691;52.486;13.374;2023-01-24T07:36:58;1.90;98.70
3356;DHT22;1691;52.486;13.374;2023-01-24T07:39:27;1.90;98.70
3356;DHT22;1691;52.486;13.374;2023-01-24T07:41:56;2.00;98.70
3356;DHT22;1691;52.486;13.374;2023-01-24T07:44:23;2.00;98.70
3356;DHT22;1691;52.486;13.374;2023-01-24T07:46:50;2.10;98.70
3356;DHT22;1691;52.486;13.374;2023-01-24T07:49:17;2.10;98.70
3356;DHT22;1691;52.486;13.374;2023-01-24T07:51:44;2.20;98.70
3356;DHT22;1691;52.486;13.374;2023-01-24T07:54:14;2.30;98.70
3356;DHT22;1691;52.486;13.374;2023-01-24T07:56:44;2.30;98.70
3356;DHT22;1691;52.486;13.374;2023-01-24T07:59:11;2.30;98.70
3356;DHT22;1691;52.486;13.374;2023-01-24T08:01:40;2.40;98.50
3356;DHT22;1691;52.486;13.374;2023-01-24T08:04:07;2.40;98.50
3356;DHT22;1691;52.486;13.374;2023-01-24T08:06:35;2.40;98.50
3356;DHT22;1691;52.486;13.374;2023-01-24T08:09:02;2.40;98.40
3356;DHT22;1691;52.486;13.374;2023-01-24T08:11:29;2.40;98.40
3356;DHT22;1691;52.486;13.374;2023-01-24T08:13:56;2.40;98.30
3356;DHT22;1691;52.486;13.374;2023-01-24T08:16:23;2.40;98.40
3356;DHT22;1691;52.486;13.374;2023-01-24T08:18:52;2.40;98.30
3356;DHT22;1691;52.486;13.374;2023-01-24T08:21:19;2.40;98.20
3356;DHT22;1691;52.486;13.374;2023-01-24T08:23:46;2.40;98.20
3356;DHT22;1691;52.486;13.374;2023-01-24T08:26:13;2.40;98.20
3356;DHT22;1691;52.486;13.374;2023-01-24T08:28:40;2.50;98.30
3356;DHT22;1691;52.486;13.374;2023-01-24T08:31:07;2.50;98.30
3356;DHT22;1691;52.486;13.374;2023-01-24T08:33:34;2.60;98.20
3356;DHT22;1691;52.486;13.374;2023-01-24T08:36:05;2.60;98.30
3356;DHT22;1691;52.486;13.374;2023-01-24T08:38:32;2.70;98.20
3356;DHT22;1691;52.486;13.374;2023-01-24T08:41:02;2.70;98.10
3356;DHT22;1691;52.486;13.374;2023-01-24T08:43:33;2.70;97.90
3356;DHT22;1691;52.486;13.374;2023-01-24T08:46:00;2.70;98.00
3356;DHT22;1691;52.486;13.374;2023-01-24T08:48:28;2.70;98.20
3356;DHT22;1691;52.486;13.374;2023-01-24T08:50:56;2.80;98.20
3356;DHT22;1691;52.486;13.374;2023-01-24T08:53:23;2.80;98.10
3356;DHT22;1691;52.486;13.374;2023-01-24T08:55:50;2.80;98.10
3356;DHT22;1691;52.486;13.374;2023-01-24T08:58:18;2.80;98.00
3356;DHT22;1691;52.486;13.374;2023-01-24T09:00:45;2.80;97.90
3356;DHT22;1691;52.486;13.374;2023-01-24T09:03:15;2.80;97.80
3356;DHT22;1691;52.486;13.374;2023-01-24T09:05:44;2.80;97.90
3356;DHT22;1691;52.486;13.374;2023-01-24T09:08:12;2.80;97.90
3356;DHT22;1691;52.486;13.374;2023-01-24T09:10:39;2.80;97.90
3356;DHT22;1691;52.486;13.374;2023-01-24T09:13:07;2.80;97.80
3356;DHT22;1691;52.486;13.374;2023-01-24T09:15:34;2.80;97.70
3356;DHT22;1691;52.486;13.374;2023-01-24T09:18:01;2.80;97.80
3356;DHT22;1691;52.486;13.374;2023-01-24T09:20:31;2.90;97.80
3356;DHT22;1691;52.486;13.374;2023-01-24T09:22:58;2.90;97.80
3356;DHT22;1691;52.486;13.374;2023-01-24T09:25:25;3.00;97.70
3356;DHT22;1691;52.486;13.374;2023-01-24T09:27:54;3.00;97.60
3356;DHT22;1691;52.486;13.374;2023-01-24T09:30:22;3.00;97.60
3356;DHT22;1691;52.486;13.374;2023-01-24T09:32:50;3.10;97.60
3356;DHT22;1691;52.486;13.374;2023-01-24T09:35:17;3.10;97.50
3356;DHT22;1691;52.486;13.374;2023-01-24T09:37:44;3.10;97.50
3356;DHT22;1691;52.486;13.374;2023-01-24T09:40:25;3.10;97.40
3356;DHT22;1691;52.486;13.374;2023-01-24T09:43:12;3.10;97.20
3356;DHT22;1691;52.486;13.374;2023-01-24T09:46:12;3.20;97.40
3356;DHT22;1691;52.486;13.374;2023-01-24T09:48:40;3.20;97.40
3356;DHT22;1691;52.486;13.374;2023-01-24T09:51:22;3.30;97.40
3356;DHT22;1691;52.486;13.374;2023-01-24T09:53:55;3.40;97.40
3356;DHT22;1691;52.486;13.374;2023-01-24T09:56:25;3.50;97.30
3356;DHT22;1691;52.486;13.374;2023-01-24T09:59:05;3.50;97.20
3356;DHT22;1691;52.486;13.374;2023-01-24T10:01:39;3.60;97.10
3356;DHT22;1691;52.486;13.374;2023-01-24T10:04:36;3.70;96.90
3356;DHT22;1691;52.486;13.374;2023-01-24T10:07:40;3.70;96.80
3356;DHT22;1691;52.486;13.374;2023-01-24T10:10:40;3.70;97.00
3356;DHT22;1691;52.486;13.374;2023-01-24T10:23:23;4.00;96.90
3356;DHT22;1691;52.486;13.374;2023-01-24T10:28:39;4.00;96.70
3356;DHT22;1691;52.486;13.374;2023-01-24T10:31:12;4.10;96.70
3356;DHT22;1691;52.486;13.374;2023-01-24T10:34:15;4.10;96.30
3356;DHT22;1691;52.486;13.374;2023-01-24T10:36:53;4.10;96.30
3356;DHT22;1691;52.486;13.374;2023-01-24T10:39:24;4.20;96.40
3356;DHT22;1691;52.486;13.374;2023-01-24T10:41:54;4.20;96.20
3356;DHT22;1691;52.486;13.374;2023-01-24T10:44:23;4.10;96.20
3356;DHT22;1691;52.486;13.374;2023-01-24T10:49:56;4.20;96.00
3356;DHT22;1691;52.486;13.374;2023-01-24T10:52:26;4.20;96.00
3356;DHT22;1691;52.486;13.374;2023-01-24T10:54:54;4.20;95.90
3356;DHT22;1691;52.486;13.374;2023-01-24T11:00:22;4.20;95.90
3356;DHT22;1691;52.486;13.374;2023-01-24T11:02:58;4.30;95.70
3356;DHT22;1691;52.486;13.374;2023-01-24T11:05:50;4.20;95.70
3356;DHT22;1691;52.486;13.374;2023-01-24T11:08:21;4.30;95.60
3356;DHT22;1691;52.486;13.374;2023-01-24T11:10:54;4.30;95.60
3356;DHT22;1691;52.486;13.374;2023-01-24T11:13:35;4.20;95.60
3356;DHT22;1691;52.486;13.374;2023-01-24T11:18:58;4.30;95.60
3356;DHT22;1691;52.486;13.374;2023-01-24T11:21:32;4.20;95.50
3356;DHT22;1691;52.486;13.374;2023-01-24T11:24:14;4.20;95.50
3356;DHT22;1691;52.486;13.374;2023-01-24T11:26:58;4.20;95.60
3356;DHT22;1691;52.486;13.374;2023-01-24T11:29:42;4.20;95.60
3356;DHT22;1691;52.486;13.374;2023-01-24T11:35:10;4.20;95.40
3356;DHT22;1691;52.486;13.374;2023-01-24T11:48:55;4.00;95.50
3356;DHT22;1691;52.486;13.374;2023-01-24T11:52:04;4.00;95.60
3356;DHT22;1691;52.486;13.374;2023-01-24T11:57:55;4.20;95.40
3356;DHT22;1691;52.486;13.374;2023-01-24T12:03:33;4.30;95.40
3356;DHT22;1691;52.486;13.374;2023-01-24T12:06:37;4.40;95.20
3356;DHT22;1691;52.486;13.374;2023-01-24T12:09:22;4.40;95.10
3356;DHT22;1691;52.486;13.374;2023-01-24T12:12:02;4.40;95.00
3356;DHT22;1691;52.486;13.374;2023-01-24T12:15:04;4.40;95.10
3356;DHT22;1691;52.486;13.374;2023-01-24T12:26:14;4.50;94.80
3356;DHT22;1691;52.486;13.374;2023-01-24T12:37:32;4.30;94.80
3356;DHT22;1691;52.486;13.374;2023-01-24T12:42:55;4.20;94.70
3356;DHT22;1691;52.486;13.374;2023-01-24T12:45:32;4.20;94.70
3356;DHT22;1691;52.486;13.374;2023-01-24T12:48:18;4.20;94.70
3356;DHT22;1691;52.486;13.374;2023-01-24T12:50:57;4.10;94.80
3356;DHT22;1691;52.486;13.374;2023-01-24T12:59:13;4.10;94.90
3356;DHT22;1691;52.486;13.374;2023-01-24T13:08:11;4.10;94.80
3356;DHT22;1691;52.486;13.374;2023-01-24T13:11:02;4.10;94.80
3356;DHT22;1691;52.486;13.374;2023-01-24T13:13:45;4.00;94.80
3356;DHT22;1691;52.486;13.374;2023-01-24T13:16:30;4.00;94.80
3356;DHT22;1691;52.486;13.374;2023-01-24T13:22:22;3.90;95.10
3356;DHT22;1691;52.486;13.374;2023-01-24T13:34:09;4.00;95.00
3356;DHT22;1691;52.486;13.374;2023-01-24T13:36:40;4.00;94.90
3356;DHT22;1691;52.486;13.374;2023-01-24T13:44:39;4.00;95.00
3356;DHT22;1691;52.486;13.374;2023-01-24T14:08:33;3.90;95.00
3356;DHT22;1691;52.486;13.374;2023-01-24T14:24:35;3.90;95.10
3356;DHT22;1691;52.486;13.374;2023-01-24T14:27:27;4.00;95.10
3356;DHT22;1691;52.486;13.374;2023-01-24T14:33:17;4.00;94.90
3356;DHT22;1691;52.486;13.374;2023-01-24T14:36:00;3.90;95.00
3356;DHT22;1691;52.486;13.374;2023-01-24T14:38:32;3.90;95.20
3356;DHT22;1691;52.486;13.374;2023-01-24T14:40:59;3.90;95.20
3356;DHT22;1691;52.486;13.374;2023-01-24T14:43:35;3.80;95.20
3356;DHT22;1691;52.486;13.374;2023-01-24T14:46:20;3.80;95.20
3356;DHT22;1691;52.486;13.374;2023-01-24T14:48:50;3.70;95.20
3356;DHT22;1691;52.486;13.374;2023-01-24T14:51:22;3.70;95.40
3356;DHT22;1691;52.486;13.374;2023-01-24T14:53:53;3.70;95.40
3356;DHT22;1691;52.486;13.374;2023-01-24T14:56:23;3.70;95.40
3356;DHT22;1691;52.486;13.374;2023-01-24T14:58:52;3.70;95.40
3356;DHT22;1691;52.486;13.374;2023-01-24T15:01:28;3.70;95.40
3356;DHT22;1691;52.486;13.374;2023-01-24T15:04:02;3.80;95.40
3356;DHT22;1691;52.486;13.374;2023-01-24T15:06:32;3.80;95.40
3356;DHT22;1691;52.486;13.374;2023-01-24T15:09:02;3.80;95.10
3356;DHT22;1691;52.486;13.374;2023-01-24T15:11:35;3.80;95.20
3356;DHT22;1691;52.486;13.374;2023-01-24T15:14:06;3.80;95.20
3356;DHT22;1691;52.486;13.374;2023-01-24T15:16:52;3.80;95.10
3356;DHT22;1691;52.486;13.374;2023-01-24T15:19:24;3.90;95.10
3356;DHT22;1691;52.486;13.374;2023-01-24T15:21:53;3.80;95.10
3356;DHT22;1691;52.486;13.374;2023-01-24T15:24:31;3.80;95.00
3356;DHT22;1691;52.486;13.374;2023-01-24T15:26:59;3.70;95.10
3356;DHT22;1691;52.486;13.374;2023-01-24T15:29:47;3.70;95.20
3356;DHT22;1691;52.486;13.374;2023-01-24T15:32:24;3.70;95.40
3356;DHT22;1691;52.486;13.374;2023-01-24T15:37:43;3.70;95.40
3356;DHT22;1691;52.486;13.374;2023-01-24T15:40:18;3.70;95.40
3356;DHT22;1691;52.486;13.374;2023-01-24T15:42:46;3.80;95.40
3356;DHT22;1691;52.486;13.374;2023-01-24T15:45:36;3.80;95.40
3356;DHT22;1691;52.486;13.374;2023-01-24T15:48:19;3.80;95.40
3356;DHT22;1691;52.486;13.374;2023-01-24T15:50:49;3.80;95.50
3356;DHT22;1691;52.486;13.374;2023-01-24T15:53:41;3.80;95.40
3356;DHT22;1691;52.486;13.374;2023-01-24T15:56:15;3.80;95.40
3356;DHT22;1691;52.486;13.374;2023-01-24T15:58:49;3.80;95.40
3356;DHT22;1691;52.486;13.374;2023-01-24T16:01:17;3.80;95.50
3356;DHT22;1691;52.486;13.374;2023-01-24T16:03:44;3.80;95.50
3356;DHT22;1691;52.486;13.374;2023-01-24T16:06:11;3.80;95.60
3356;DHT22;1691;52.486;13.374;2023-01-24T16:08:38;3.80;95.50
3356;DHT22;1691;52.486;13.374;2023-01-24T16:11:05;3.80;95.50
3356;DHT22;1691;52.486;13.374;2023-01-24T16:13:40;3.80;95.40
3356;DHT22;1691;52.486;13.374;2023-01-24T16:16:13;3.80;95.40
3356;DHT22;1691;52.486;13.374;2023-01-24T16:18:41;3.80;95.50
3356;DHT22;1691;52.486;13.374;2023-01-24T16:21:09;3.80;95.50
3356;DHT22;1691;52.486;13.374;2023-01-24T16:23:36;3.80;95.60
3356;DHT22;1691;52.486;13.374;2023-01-24T16:26:03;3.80;95.60
3356;DHT22;1691;52.486;13.374;2023-01-24T16:28:30;3.80;95.70
3356;DHT22;1691;52.486;13.374;2023-01-24T16:31:02;3.80;95.70
3356;DHT22;1691;52.486;13.374;2023-01-24T16:33:29;3.90;95.60
3356;DHT22;1691;52.486;13.374;2023-01-24T16:35:57;3.90;95.60
3356;DHT22;1691;52.486;13.374;2023-01-24T16:38:24;3.90;95.60
3356;DHT22;1691;52.486;13.374;2023-01-24T16:40:51;3.90;95.60
3356;DHT22;1691;52.486;13.374;2023-01-24T16:43:20;3.90;95.70
3356;DHT22;1691;52.486;13.374;2023-01-24T16:45:49;3.90;95.60
3356;DHT22;1691;52.486;13.374;2023-01-24T16:48:17;4.00;95.60
3356;DHT22;1691;52.486;13.374;2023-01-24T16:50:45;4.00;95.60
3356;DHT22;1691;52.486;13.374;2023-01-24T16:53:14;4.00;95.70
3356;DHT22;1691;52.486;13.374;2023-01-24T16:55:42;4.10;95.60
3356;DHT22;1691;52.486;13.374;2023-01-24T16:58:10;4.10;95.60
3356;DHT22;1691;52.486;13.374;2023-01-24T17:00:38;4.10;95.50
3356;DHT22;1691;52.486;13.374;2023-01-24T17:03:06;4.10;95.40
3356;DHT22;1691;52.486;13.374;2023-01-24T17:05:33;4.10;95.50
3356;DHT22;1691;52.486;13.374;2023-01-24T17:08:00;4.20;95.50
3356;DHT22;1691;52.486;13.374;2023-01-24T17:10:27;4.20;95.40
3356;DHT22;1691;52.486;13.374;2023-01-24T17:12:54;4.20;95.40
3356;DHT22;1691;52.486;13.374;2023-01-24T17:15:21;4.20;95.30
3356;DHT22;1691;52.486;13.374;2023-01-24T17:17:48;4.20;95.20
3356;DHT22;1691;52.486;13.374;2023-01-24T17:20:15;4.20;95.20
3356;DHT22;1691;52.486;13.374;2023-01-24T17:22:42;4.20;95.20
3356;DHT22;1691;52.486;13.374;2023-01-24T17:25:10;4.20;95.10
3356;DHT22;1691;52.486;13.374;2023-01-24T17:27:37;4.20;95.10
3356;DHT22;1691;52.486;13.374;2023-01-24T17:30:04;4.10;95.20
3356;DHT22;1691;52.486;13.374;2023-01-24T17:32:32;4.10;95.30
3356;DHT22;1691;52.486;13.374;2023-01-24T17:35:00;4.10;95.30
3356;DHT22;1691;52.486;13.374;2023-01-24T17:37:27;4.20;95.40
3356;DHT22;1691;52.486;13.374;2023-01-24T17:39:54;4.20;95.30
3356;DHT22;1691;52.486;13.374;2023-01-24T17:42:21;4.20;95.20
3356;DHT22;1691;52.486;13.374;2023-01-24T17:44:48;4.20;95.20
3356;DHT22;1691;52.486;13.374;2023-01-24T17:47:15;4.20;95.30
3356;DHT22;1691;52.486;13.374;2023-01-24T17:49:42;4.20;95.40
3356;DHT22;1691;52.486;13.374;2023-01-24T17:52:09;4.20;95.30
3356;DHT22;1691;52.486;13.374;2023-01-24T17:54:36;4.20;95.20
3356;DHT22;1691;52.486;13.374;2023-01-24T17:57:03;4.20;95.20
3356;DHT22;1691;52.486;13.374;2023-01-24T17:59:30;4.20;95.30
3356;DHT22;1691;52.486;13.374;2023-01-24T18:01:57;4.10;95.30
3356;DHT22;1691;52.486;13.374;2023-01-24T18:04:24;4.20;95.40
3356;DHT22;1691;52.486;13.374;2023-01-24T18:06:51;4.20;95.30
3356;DHT22;1691;52.486;13.374;2023-01-24T18:09:18;4.20;95.40
3356;DHT22;1691;52.486;13.374;2023-01-24T18:11:46;4.20;95.40
3356;DHT22;1691;52.486;13.374;2023-01-24T18:14:13;4.10;95.40
3356;DHT22;1691;52.486;13.374;2023-01-24T18:16:40;4.10;95.50
3356;DHT22;1691;52.486;13.374;2023-01-24T18:19:07;4.10;95.50
3356;DHT22;1691;52.486;13.374;2023-01-24T18:21:34;4.10;95.50
3356;DHT22;1691;52.486;13.374;2023-01-24T18:24:02;4.10;95.50
3356;DHT22;1691;52.486;13.374;2023-01-24T18:26:30;4.10;95.60
3356;DHT22;1691;52.486;13.374;2023-01-24T18:28:58;4.10;95.60
3356;DHT22;1691;52.486;13.374;2023-01-24T18:31:26;4.20;95.60
3356;DHT22;1691;52.486;13.374;2023-01-24T18:33:55;4.20;95.60
3356;DHT22;1691;52.486;13.374;2023-01-24T18:36:27;4.20;95.50
3356;DHT22;1691;52.486;13.374;2023-01-24T18:38:55;4.20;95.40
3356;DHT22;1691;52.486;13.374;2023-01-24T18:41:23;4.20;95.40
3356;DHT22;1691;52.486;13.374;2023-01-24T18:43:50;4.20;95.40
3356;DHT22;1691;52.486;13.374;2023-01-24T18:46:17;4.20;95.40
3356;DHT22;1691;52.486;13.374;2023-01-24T18:48:44;4.10;95.40
3356;DHT22;1691;52.486;13.374;2023-01-24T18:51:14;4.10;95.40